Time;durP1;ratioP1;P1;durP2;ratioP2;P2;SDS_P1;SDS_P2;PMS_P1;PMS_P2;Temp;Humidity;BMP_temperature;BMP_pressure;BME280_temperature;BME280_humidity;BME280_pressure;Samples;Min_cycle;Max_cycle;Signal;HPM_P1;HPM_P2
2021/04/18 00:02:10;;;;;;;6.97;4.15;;;7.50;96.70;;;;;;5060746;28;20130;-80
2021/04/18 00:04:39;;;;;;;8.45;4.72;;;7.50;96.80;;;;;;5088222;28;20072;-79
2021/04/18 00:07:05;;;;;;;7.68;4.47;;;7.40;96.90;;;;;;5095718;28;20051;-78
2021/04/18 00:09:32;;;;;;;7.88;4.10;;;7.30;97.20;;;;;;5098782;28;20048;-78
2021/04/18 00:11:59;;;;;;;6.30;3.95;;;7.40;97.50;;;;;;5093825;28;20555;-79
2021/04/18 00:14:26;;;;;;;6.07;4.15;;;7.40;97.70;;;;;;5082505;28;20075;-79
2021/04/18 00:16:53;;;;;;;6.95;4.13;;;7.40;97.50;;;;;;5087400;28;20044;-80
2021/04/18 00:19:20;;;;;;;7.28;4.30;;;7.30;97.50;;;;;;5075733;28;20075;-79
2021/04/18 00:21:48;;;;;;;8.85;4.97;;;7.30;97.30;;;;;;5077082;28;20055;-80
2021/04/18 00:24:15;;;;;;;7.28;4.30;;;7.40;97.40;;;;;;5058296;28;20068;-78
2021/04/18 00:26:42;;;;;;;5.72;3.60;;;7.30;97.50;;;;;;5060389;28;20087;-78
2021/04/18 00:29:08;;;;;;;7.40;3.92;;;7.30;97.60;;;;;;5085443;28;20067;-78
2021/04/18 00:31:35;;;;;;;6.53;3.58;;;7.30;97.60;;;;;;5081086;28;20040;-79
2021/04/18 00:34:02;;;;;;;5.28;3.47;;;7.30;97.70;;;;;;5077678;28;20098;-79
2021/04/18 00:36:28;;;;;;;5.80;3.38;;;7.30;97.40;;;;;;5073782;28;20071;-79
2021/04/18 00:38:56;;;;;;;5.75;3.50;;;7.30;97.40;;;;;;5083736;28;20072;-80
2021/04/18 00:41:23;;;;;;;5.80;3.83;;;7.30;97.30;;;;;;5075579;28;20083;-80
2021/04/18 00:43:50;;;;;;;5.30;3.58;;;7.30;97.50;;;;;;5094155;28;20051;-78
2021/04/18 00:46:16;;;;;;;5.70;3.42;;;7.20;97.20;;;;;;5078176;28;20127;-79
2021/04/18 00:48:44;;;;;;;5.70;3.22;;;7.30;97.20;;;;;;5087546;28;20072;-78
2021/04/18 00:51:13;;;;;;;6.68;3.53;;;7.30;97.30;;;;;;5085899;28;20474;-79
2021/04/18 00:53:41;;;;;;;6.07;3.33;;;7.30;97.30;;;;;;5078421;28;20126;-78
2021/04/18 00:56:10;;;;;;;5.25;3.53;;;7.30;97.30;;;;;;5078297;28;20215;-78
2021/04/18 00:58:38;;;;;;;6.20;3.42;;;7.30;97.20;;;;;;5089577;28;20076;-78
2021/04/18 01:01:06;;;;;;;6.35;3.67;;;7.30;97.30;;;;;;5092646;28;20075;-78
2021/04/18 01:03:33;;;;;;;5.53;3.53;;;7.20;97.10;;;;;;5081457;28;20041;-78
2021/04/18 01:06:00;;;;;;;5.03;3.63;;;7.30;97.10;;;;;;5073092;28;20054;-79
2021/04/18 01:08:27;;;;;;;5.57;3.45;;;7.30;97.00;;;;;;5080112;28;20071;-79
2021/04/18 01:10:54;;;;;;;6.32;3.65;;;7.30;97.00;;;;;;5090786;28;20072;-78
2021/04/18 01:13:21;;;;;;;6.25;3.90;;;7.30;97.20;;;;;;5084092;28;20040;-79
2021/04/18 01:15:48;;;;;;;5.20;3.45;;;7.30;97.30;;;;;;5087275;28;20556;-79
2021/04/18 01:18:14;;;;;;;6.95;4.00;;;7.30;97.00;;;;;;5093169;28;20072;-77
2021/04/18 01:20:41;;;;;;;5.43;3.53;;;7.30;97.10;;;;;;5078566;28;20086;-78
2021/04/18 01:23:09;;;;;;;5.43;3.63;;;7.20;97.10;;;;;;5078106;28;20094;-77
2021/04/18 01:25:41;;;;;;;6.88;3.90;;;7.20;97.10;;;;;;5087859;28;20573;-78
2021/04/18 01:28:08;;;;;;;6.95;4.05;;;7.30;97.00;;;;;;5085674;28;20499;-78
2021/04/18 01:30:35;;;;;;;5.60;3.75;;;7.30;96.90;;;;;;5079330;28;20072;-77
2021/04/18 01:33:03;;;;;;;6.07;3.80;;;7.30;96.90;;;;;;5090390;28;20123;-77
2021/04/18 01:35:30;;;;;;;7.65;4.20;;;7.20;97.00;;;;;;5080111;28;20474;-78
2021/04/18 01:37:57;;;;;;;7.78;4.70;;;7.30;97.00;;;;;;5072789;28;20129;-77
2021/04/18 01:40:26;;;;;;;11.93;6.72;;;7.30;96.90;;;;;;5087443;28;20079;-77
2021/04/18 01:42:53;;;;;;;11.90;6.38;;;7.30;96.80;;;;;;5077238;28;20094;-77
2021/04/18 01:45:20;;;;;;;9.38;5.82;;;7.20;97.00;;;;;;5094390;28;20083;-76
2021/04/18 01:47:47;;;;;;;8.27;4.63;;;7.20;97.00;;;;;;5083853;28;20047;-76
2021/04/18 01:50:17;;;;;;;5.53;3.85;;;7.20;96.90;;;;;;5088737;28;20076;-77
2021/04/18 01:52:45;;;;;;;7.20;4.30;;;7.20;97.00;;;;;;5088001;28;20045;-77
2021/04/18 01:55:15;;;;;;;5.45;3.72;;;7.00;97.00;;;;;;5082857;28;20127;-77
2021/04/18 01:57:42;;;;;;;6.85;3.85;;;7.20;97.00;;;;;;5096968;28;20040;-78
2021/04/18 02:00:14;;;;;;;7.15;4.05;;;7.20;96.50;;;;;;5099995;28;20040;-77
2021/04/18 02:02:41;;;;;;;6.18;4.10;;;7.10;96.60;;;;;;5081035;28;20451;-77
2021/04/18 02:05:09;;;;;;;7.18;4.32;;;7.20;96.50;;;;;;5096910;28;20576;-77
2021/04/18 02:07:36;;;;;;;5.50;3.60;;;7.20;96.50;;;;;;5081521;28;20521;-78
2021/04/18 02:10:04;;;;;;;6.30;3.75;;;7.20;96.50;;;;;;5085147;28;20080;-77
2021/04/18 02:12:31;;;;;;;5.63;3.83;;;7.10;96.60;;;;;;5087524;28;20048;-77
2021/04/18 02:14:59;;;;;;;6.80;4.30;;;7.10;96.80;;;;;;5076015;28;20075;-78
2021/04/18 02:17:26;;;;;;;6.10;4.00;;;7.10;96.40;;;;;;5081656;28;20123;-78
2021/04/18 02:19:52;;;;;;;6.22;3.88;;;7.10;96.20;;;;;;5091910;28;20125;-77
2021/04/18 02:22:19;;;;;;;6.05;3.60;;;7.20;96.10;;;;;;5077621;28;20079;-78
2021/04/18 02:24:46;;;;;;;5.50;3.85;;;7.20;96.00;;;;;;5085247;28;20091;-77
2021/04/18 02:27:12;;;;;;;6.10;3.80;;;7.20;95.90;;;;;;5085163;28;20110;-78
2021/04/18 02:29:39;;;;;;;5.43;3.70;;;7.10;96.00;;;;;;5077773;28;20064;-78
2021/04/18 02:32:07;;;;;;;6.13;3.80;;;7.20;96.10;;;;;;5081387;28;20117;-77
2021/04/18 02:34:34;;;;;;;6.95;3.63;;;7.10;96.20;;;;;;5088175;28;20479;-78
2021/04/18 02:37:01;;;;;;;5.78;3.85;;;7.10;96.20;;;;;;5076251;28;20092;-78
2021/04/18 02:39:28;;;;;;;5.13;3.70;;;7.20;96.00;;;;;;5079459;28;20088;-78
2021/04/18 02:41:54;;;;;;;6.82;4.07;;;7.10;95.90;;;;;;5074539;28;20072;-78
2021/04/18 02:44:21;;;;;;;6.25;4.28;;;7.20;96.00;;;;;;5077798;28;20072;-78
2021/04/18 02:46:48;;;;;;;6.15;3.63;;;7.10;96.00;;;;;;5084536;28;20106;-76
2021/04/18 02:49:15;;;;;;;6.72;4.10;;;7.10;96.20;;;;;;5085241;28;20127;-76
2021/04/18 02:51:42;;;;;;;6.57;4.03;;;7.20;96.20;;;;;;5076866;28;20561;-77
2021/04/18 02:54:09;;;;;;;6.70;4.00;;;7.20;96.20;;;;;;5089102;28;20052;-77
2021/04/18 02:56:35;;;;;;;6.63;4.07;;;7.10;96.20;;;;;;5079764;28;20044;-77
2021/04/18 02:59:02;;;;;;;5.93;3.97;;;7.10;96.30;;;;;;5082666;28;20201;-76
2021/04/18 03:01:28;;;;;;;6.43;4.18;;;7.20;96.30;;;;;;5086799;28;20125;-77
2021/04/18 03:03:55;;;;;;;6.35;4.10;;;7.20;96.30;;;;;;5086304;28;20541;-78
2021/04/18 03:06:23;;;;;;;6.70;4.07;;;7.20;96.30;;;;;;5078485;28;20086;-77
2021/04/18 03:08:50;;;;;;;6.35;3.97;;;7.10;96.40;;;;;;5090041;28;20083;-76
2021/04/18 03:11:17;;;;;;;6.20;4.18;;;7.20;96.40;;;;;;5100261;28;20071;-76
2021/04/18 03:13:44;;;;;;;6.60;4.50;;;7.10;96.40;;;;;;5096586;28;20048;-77
2021/04/18 03:16:11;;;;;;;6.43;3.97;;;7.10;96.50;;;;;;5086603;28;20132;-78
2021/04/18 03:18:38;;;;;;;6.03;3.92;;;7.10;96.50;;;;;;5077426;28;20533;-78
2021/04/18 03:21:05;;;;;;;6.03;4.03;;;7.00;96.50;;;;;;5075994;28;20138;-78
2021/04/18 03:23:33;;;;;;;5.88;4.18;;;7.00;96.50;;;;;;5080323;28;20127;-78
2021/04/18 03:26:00;;;;;;;5.68;3.88;;;7.00;96.60;;;;;;5093131;28;20468;-78
2021/04/18 03:28:26;;;;;;;6.00;3.80;;;6.90;96.50;;;;;;5080070;28;20147;-78
2021/04/18 03:30:53;;;;;;;7.20;4.28;;;6.90;96.60;;;;;;5090380;28;20581;-78
2021/04/18 03:33:20;;;;;;;7.13;4.45;;;6.90;96.60;;;;;;5078645;28;20185;-78
2021/04/18 03:35:47;;;;;;;6.15;4.10;;;7.00;96.60;;;;;;5088253;28;20076;-78
2021/04/18 03:38:13;;;;;;;7.30;4.18;;;6.90;96.50;;;;;;5062278;28;20105;-77
2021/04/18 03:40:42;;;;;;;6.22;4.00;;;6.80;96.50;;;;;;5090271;28;20549;-78
2021/04/18 03:43:09;;;;;;;6.60;4.00;;;6.90;96.50;;;;;;5075874;28;20140;-78
2021/04/18 03:45:36;;;;;;;8.25;4.38;;;6.90;96.50;;;;;;5087261;28;20044;-76
2021/04/18 03:48:04;;;;;;;6.35;4.10;;;7.00;96.50;;;;;;5083982;28;20071;-78
2021/04/18 03:50:30;;;;;;;6.60;4.22;;;7.00;96.50;;;;;;5079630;28;20454;-77
2021/04/18 03:52:57;;;;;;;6.80;4.20;;;7.00;96.50;;;;;;5075764;28;20102;-78
2021/04/18 03:55:25;;;;;;;5.47;3.72;;;7.00;96.50;;;;;;5088756;28;20087;-79
2021/04/18 03:57:53;;;;;;;5.85;4.05;;;7.00;96.40;;;;;;5082367;28;20137;-78
2021/04/18 04:00:22;;;;;;;7.47;4.28;;;7.00;96.30;;;;;;5063014;28;20083;-78
2021/04/18 04:02:49;;;;;;;6.60;4.20;;;6.90;96.20;;;;;;5092263;28;20568;-78
2021/04/18 04:05:16;;;;;;;6.78;4.00;;;6.90;96.20;;;;;;5076681;28;20131;-79
2021/04/18 04:07:43;;;;;;;7.22;4.32;;;6.90;96.40;;;;;;5083308;28;20127;-77
2021/04/18 04:10:10;;;;;;;6.18;4.30;;;6.90;96.70;;;;;;5085061;28;20068;-79
2021/04/18 04:12:37;;;;;;;7.03;4.60;;;6.90;96.50;;;;;;5091333;28;20135;-80
2021/04/18 04:15:07;;;;;;;7.07;4.50;;;6.90;96.60;;;;;;5078707;28;20665;-78
2021/04/18 04:17:34;;;;;;;7.25;4.40;;;6.90;96.50;;;;;;5093826;28;20104;-79
2021/04/18 04:20:01;;;;;;;6.90;4.10;;;6.90;96.50;;;;;;5085443;28;20525;-79
2021/04/18 04:22:27;;;;;;;6.13;4.25;;;6.90;96.50;;;;;;5072087;28;20135;-78
2021/04/18 04:24:54;;;;;;;7.75;4.68;;;6.90;96.60;;;;;;5078360;28;20127;-79
2021/04/18 04:27:22;;;;;;;16.45;9.35;;;6.90;96.70;;;;;;5091349;28;20570;-78
2021/04/18 04:29:49;;;;;;;17.27;9.77;;;6.90;96.70;;;;;;5083960;28;20131;-78
2021/04/18 04:32:17;;;;;;;15.93;8.30;;;6.90;96.70;;;;;;5082680;28;20489;-78
2021/04/18 04:34:43;;;;;;;19.02;9.95;;;6.90;96.70;;;;;;5091523;28;20127;-77
2021/04/18 04:37:10;;;;;;;13.27;7.40;;;6.90;96.90;;;;;;5092413;28;20127;-79
2021/04/18 04:39:37;;;;;;;10.48;6.30;;;6.90;96.70;;;;;;5082616;28;20083;-79
2021/04/18 04:42:05;;;;;;;7.53;4.50;;;6.90;96.70;;;;;;5085157;28;20128;-78
2021/04/18 04:44:31;;;;;;;7.75;4.57;;;6.90;96.70;;;;;;5076692;28;20052;-79
2021/04/18 04:46:58;;;;;;;6.70;4.72;;;6.90;96.90;;;;;;5091888;28;20139;-80
2021/04/18 04:49:26;;;;;;;7.45;4.65;;;6.90;96.70;;;;;;5080454;28;20040;-79
2021/04/18 04:51:52;;;;;;;7.13;4.13;;;6.90;96.90;;;;;;5086764;28;20044;-79
2021/04/18 04:54:19;;;;;;;7.13;4.30;;;6.90;97.00;;;;;;5098129;28;20051;-79
2021/04/18 04:56:46;;;;;;;6.60;4.35;;;6.80;96.90;;;;;;5078921;28;20087;-80
2021/04/18 04:59:12;;;;;;;6.18;4.57;;;6.80;97.00;;;;;;5091817;28;20500;-80
2021/04/18 05:01:39;;;;;;;7.15;4.63;;;6.90;97.00;;;;;;5089838;28;20142;-79
2021/04/18 05:04:06;;;;;;;6.55;4.70;;;6.90;97.00;;;;;;5058705;28;20135;-79
2021/04/18 05:06:34;;;;;;;7.35;4.32;;;6.90;97.00;;;;;;5090762;28;20112;-79
2021/04/18 05:09:00;;;;;;;6.22;4.07;;;6.80;97.00;;;;;;5092861;28;20054;-76
2021/04/18 05:11:27;;;;;;;6.57;4.13;;;6.80;97.10;;;;;;5075519;28;20114;-77
2021/04/18 05:13:54;;;;;;;6.47;4.40;;;6.80;97.10;;;;;;5099773;28;20048;-76
2021/04/18 05:16:20;;;;;;;6.93;4.75;;;6.80;97.20;;;;;;5102370;28;20075;-77
2021/04/18 05:18:47;;;;;;;6.55;4.40;;;6.80;97.30;;;;;;5097469;28;20259;-77
2021/04/18 05:21:15;;;;;;;6.18;4.47;;;6.80;97.30;;;;;;5091719;28;20506;-76
2021/04/18 05:23:43;;;;;;;6.68;4.60;;;6.70;97.10;;;;;;5088873;28;20051;-77
2021/04/18 05:26:09;;;;;;;7.97;4.85;;;6.80;97.10;;;;;;5094232;28;20108;-78
2021/04/18 05:28:37;;;;;;;6.95;4.65;;;6.80;97.10;;;;;;5084160;28;20044;-79
2021/04/18 05:31:04;;;;;;;7.32;4.80;;;6.80;97.10;;;;;;5088879;28;20040;-80
2021/04/18 05:33:30;;;;;;;7.43;4.95;;;6.90;97.00;;;;;;5080552;28;20158;-78
2021/04/18 05:35:57;;;;;;;8.07;5.20;;;6.90;96.90;;;;;;5074494;28;20569;-79
2021/04/18 05:38:24;;;;;;;8.90;5.10;;;6.90;97.10;;;;;;5074351;28;20072;-80
2021/04/18 05:40:52;;;;;;;7.07;5.47;;;6.90;96.70;;;;;;5074239;28;20079;-80
2021/04/18 05:43:18;;;;;;;7.95;4.97;;;7.00;96.70;;;;;;5073794;28;20143;-77
2021/04/18 05:45:45;;;;;;;9.73;5.60;;;6.90;97.00;;;;;;5076233;28;20041;-78
2021/04/18 05:48:12;;;;;;;7.35;4.97;;;7.00;96.80;;;;;;5080050;28;20076;-78
2021/04/18 05:50:39;;;;;;;8.30;5.22;;;7.00;96.80;;;;;;5085313;28;20469;-78
2021/04/18 05:53:06;;;;;;;7.88;4.88;;;7.10;96.80;;;;;;5081574;28;20478;-78
2021/04/18 05:55:33;;;;;;;6.68;4.80;;;7.10;96.70;;;;;;5075552;28;20106;-78
2021/04/18 05:58:00;;;;;;;8.73;5.15;;;7.20;96.70;;;;;;5071601;28;20129;-78
2021/04/18 06:00:27;;;;;;;7.50;5.10;;;7.20;96.50;;;;;;5059173;28;20542;-78
2021/04/18 06:02:54;;;;;;;6.85;5.28;;;7.20;96.50;;;;;;5078531;28;20068;-79
2021/04/18 06:05:20;;;;;;;8.18;5.45;;;7.20;96.30;;;;;;5081649;28;20555;-78
2021/04/18 06:07:47;;;;;;;12.15;5.90;;;7.20;96.40;;;;;;5082791;28;20076;-76
2021/04/18 06:10:14;;;;;;;7.95;5.47;;;7.20;96.60;;;;;;5074220;28;20056;-78
2021/04/18 06:12:41;;;;;;;7.32;5.30;;;7.30;96.20;;;;;;5074474;28;20080;-75
2021/04/18 06:15:11;;;;;;;10.80;5.57;;;7.30;96.30;;;;;;5075805;28;20048;-76
2021/04/18 06:17:38;;;;;;;7.35;5.32;;;7.30;96.00;;;;;;5076534;28;20066;-77
2021/04/18 06:20:06;;;;;;;8.50;5.55;;;7.40;96.30;;;;;;5056408;28;20076;-77
2021/04/18 06:22:33;;;;;;;8.52;5.70;;;7.30;95.90;;;;;;5073990;28;20087;-77
2021/04/18 06:25:00;;;;;;;8.80;5.60;;;7.30;96.00;;;;;;5057404;28;20375;-78
2021/04/18 06:27:27;;;;;;;7.15;5.78;;;7.30;96.00;;;;;;5072046;28;20075;-77
2021/04/18 06:29:53;;;;;;;8.13;5.50;;;7.10;96.10;;;;;;5074555;28;20139;-79
2021/04/18 06:32:21;;;;;;;8.77;5.30;;;7.10;96.40;;;;;;5075039;28;20548;-78
2021/04/18 06:34:48;;;;;;;7.30;5.53;;;7.10;96.40;;;;;;5102159;28;20066;-76
2021/04/18 06:37:15;;;;;;;7.32;5.18;;;7.30;96.30;;;;;;5084658;28;20055;-76
2021/04/18 06:39:41;;;;;;;8.93;5.93;;;7.20;96.00;;;;;;5081949;28;20466;-77
2021/04/18 06:42:15;;;;;;;7.55;5.60;;;7.20;96.30;;;;;;5086243;28;20082;-77
2021/04/18 06:44:42;;;;;;;8.20;5.68;;;7.00;96.30;;;;;;5073688;28;20055;-77
2021/04/18 06:47:09;;;;;;;7.25;5.20;;;7.10;96.50;;;;;;5055426;28;20566;-77
2021/04/18 06:49:38;;;;;;;7.35;5.40;;;7.20;96.30;;;;;;5086012;28;20048;-77
2021/04/18 06:52:07;;;;;;;7.28;5.20;;;7.30;96.40;;;;;;5083771;28;20043;-78
2021/04/18 06:54:36;;;;;;;10.95;5.53;;;7.30;96.20;;;;;;5074239;28;20044;-80
2021/04/18 06:57:03;;;;;;;8.57;6.15;;;7.20;96.20;;;;;;5083071;28;20135;-78
2021/04/18 06:59:30;;;;;;;7.28;5.32;;;7.50;95.40;;;;;;5078392;28;20079;-78
2021/04/18 07:01:57;;;;;;;7.70;5.15;;;7.50;95.30;;;;;;5080813;28;20052;-78
2021/04/18 07:04:24;;;;;;;8.48;5.55;;;7.50;95.40;;;;;;5075769;28;20194;-78
2021/04/18 07:06:54;;;;;;;9.65;5.90;;;7.60;95.20;;;;;;5075450;28;20462;-80
2021/04/18 07:09:23;;;;;;;8.25;5.80;;;7.60;94.80;;;;;;5070336;28;20505;-78
2021/04/18 07:11:53;;;;;;;7.45;5.18;;;7.60;95.00;;;;;;5074202;28;20049;-78
2021/04/18 07:14:25;;;;;;;8.82;5.82;;;7.60;95.20;;;;;;5078998;28;20067;-79
2021/04/18 07:16:53;;;;;;;7.00;5.28;;;7.70;95.40;;;;;;5073695;28;20409;-79
2021/04/18 07:19:25;;;;;;;8.18;5.90;;;7.60;95.70;;;;;;5084432;28;20090;-80
2021/04/18 07:21:56;;;;;;;7.30;5.22;;;7.70;95.50;;;;;;5077146;28;20093;-78
2021/04/18 07:24:25;;;;;;;9.25;6.03;;;7.60;95.20;;;;;;5081739;28;20052;-81
2021/04/18 07:27:01;;;;;;;7.15;5.55;;;7.70;94.90;;;;;;5081262;28;20135;-81
2021/04/18 07:29:30;;;;;;;7.18;5.28;;;7.80;95.00;;;;;;5093236;28;20083;-82
2021/04/18 07:31:59;;;;;;;6.47;5.20;;;7.80;95.10;;;;;;5095894;28;20477;-79
2021/04/18 07:34:35;;;;;;;7.60;5.57;;;7.70;95.20;;;;;;5081809;28;20061;-80
2021/04/18 07:37:17;;;;;;;7.57;5.53;;;7.70;95.40;;;;;;5080651;28;20076;-79
2021/04/18 07:39:47;;;;;;;8.82;6.38;;;7.70;95.50;;;;;;5080153;28;20127;-80
2021/04/18 07:42:32;;;;;;;8.48;6.00;;;7.90;95.10;;;;;;5080453;28;20048;-78
2021/04/18 07:45:00;;;;;;;;;;;7.90;95.00;;;;;;5074727;28;20072;-79
2021/04/18 07:47:28;;;;;;;9.07;6.28;;;7.90;94.80;;;;;;5061353;28;19920;-78
2021/04/18 07:49:56;;;;;;;7.85;6.00;;;8.00;94.40;;;;;;5083192;28;20379;-78
2021/04/18 07:52:25;;;;;;;9.43;6.10;;;7.90;94.70;;;;;;5063912;28;20083;-80
2021/04/18 07:54:53;;;;;;;10.48;6.70;;;7.90;94.70;;;;;;5091362;28;20047;-79
2021/04/18 07:57:21;;;;;;;8.20;5.88;;;8.00;95.00;;;;;;5080378;28;20127;-78
2021/04/18 07:59:48;;;;;;;9.55;6.25;;;8.20;95.00;;;;;;5081365;28;20611;-79
2021/04/18 08:02:19;;;;;;;9.48;7.00;;;8.20;94.80;;;;;;5065188;28;20064;-79
2021/04/18 08:04:50;;;;;;;8.32;6.15;;;8.40;94.90;;;;;;5072333;28;20041;-80
2021/04/18 08:07:17;;;;;;;10.10;6.90;;;8.40;95.00;;;;;;5065011;28;20098;-79
2021/04/18 08:09:44;;;;;;;7.95;5.97;;;8.40;94.50;;;;;;5062110;28;20076;-81
2021/04/18 08:12:15;;;;;;;10.07;6.28;;;8.50;94.50;;;;;;5058802;28;20045;-79
2021/04/18 08:14:44;;;;;;;8.15;6.07;;;8.50;94.20;;;;;;5056915;28;20087;-79
2021/04/18 08:17:14;;;;;;;8.30;6.38;;;8.50;93.90;;;;;;5061595;28;20081;-79
2021/04/18 08:19:55;;;;;;;8.82;6.13;;;8.50;93.80;;;;;;5073112;28;20072;-81
2021/04/18 08:22:22;;;;;;;9.38;6.93;;;8.30;93.80;;;;;;5065409;28;20494;-79
2021/04/18 08:25:09;;;;;;;7.75;5.82;;;8.50;93.70;;;;;;5068008;28;20045;-80
2021/04/18 08:28:03;;;;;;;8.40;5.70;;;8.40;94.20;;;;;;5071205;28;20076;-79
2021/04/18 08:30:52;;;;;;;8.15;5.40;;;8.40;94.60;;;;;;5058796;28;20067;-79
2021/04/18 08:33:46;;;;;;;9.18;6.22;;;8.30;94.60;;;;;;5056276;28;20091;-80
2021/04/18 08:36:16;;;;;;;9.02;6.47;;;8.40;94.90;;;;;;5072621;28;20068;-79
2021/04/18 08:38:44;;;;;;;8.75;6.72;;;8.40;94.40;;;;;;5071713;28;20113;-78
2021/04/18 08:41:14;;;;;;;10.32;7.10;;;8.40;94.30;;;;;;5073602;28;20577;-79
2021/04/18 08:43:42;;;;;;;8.82;6.82;;;8.40;93.90;;;;;;5073453;28;20555;-79
2021/04/18 08:46:09;;;;;;;9.75;6.70;;;8.40;93.90;;;;;;5064155;28;20476;-80
2021/04/18 08:48:36;;;;;;;11.45;6.88;;;8.30;93.90;;;;;;5070639;28;20525;-81
2021/04/18 08:51:07;;;;;;;10.43;6.65;;;8.30;93.70;;;;;;5059121;28;20052;-80
2021/04/18 08:53:55;;;;;;;9.73;6.68;;;8.30;94.00;;;;;;5063223;28;20506;-80
2021/04/18 08:56:23;;;;;;;9.30;6.63;;;8.40;94.20;;;;;;5071227;28;20045;-81
2021/04/18 08:58:50;;;;;;;10.27;6.70;;;8.40;94.00;;;;;;5062891;28;20075;-79
2021/04/18 09:01:18;;;;;;;8.95;6.57;;;8.50;94.10;;;;;;5063100;28;20515;-81
2021/04/18 09:04:03;;;;;;;10.32;6.75;;;8.50;94.10;;;;;;5066089;28;20094;-79
2021/04/18 09:06:35;;;;;;;9.00;5.70;;;8.60;94.10;;;;;;5059814;28;20181;-79
2021/04/18 09:09:05;;;;;;;9.75;6.40;;;8.70;93.90;;;;;;5081457;28;20436;-79
2021/04/18 09:11:39;;;;;;;9.80;6.28;;;8.70;93.90;;;;;;5074745;28;20045;-79
2021/04/18 09:14:06;;;;;;;12.40;6.55;;;8.90;94.00;;;;;;5074832;28;20052;-79
2021/04/18 09:16:34;;;;;;;14.18;7.40;;;8.80;93.60;;;;;;5074669;28;20075;-77
2021/04/18 09:19:27;;;;;;;11.60;6.38;;;8.90;92.70;;;;;;5084779;28;20123;-77
2021/04/18 09:22:05;;;;;;;13.23;6.47;;;9.00;93.30;;;;;;5079546;28;20044;-85
2021/04/18 09:24:35;;;;;;;11.23;6.53;;;9.10;93.70;;;;;;5087018;28;20082;-79
2021/04/18 09:27:06;;;;;;;11.57;7.25;;;9.00;93.00;;;;;;5078755;28;20140;-78
2021/04/18 09:29:39;;;;;;;14.27;6.88;;;9.00;93.00;;;;;;5094288;28;20122;-79
2021/04/18 09:32:09;;;;;;;11.73;6.35;;;9.10;93.10;;;;;;5073296;28;20516;-78
2021/04/18 09:34:38;;;;;;;13.68;6.00;;;9.10;92.60;;;;;;5073342;28;20448;-78
2021/04/18 09:37:11;;;;;;;9.55;5.93;;;9.20;92.30;;;;;;5075391;28;20122;-78
2021/04/18 09:39:38;;;;;;;13.25;6.05;;;9.20;92.10;;;;;;5075820;28;20044;-79
2021/04/18 09:42:08;;;;;;;10.35;6.10;;;9.30;91.80;;;;;;5059456;28;20132;-78
2021/04/18 09:44:42;;;;;;;12.88;6.55;;;9.30;91.50;;;;;;5094092;28;20050;-78
2021/04/18 09:47:20;;;;;;;11.63;5.82;;;9.30;91.40;;;;;;5087096;28;20078;-79
2021/04/18 09:49:52;;;;;;;11.02;5.63;;;9.30;91.70;;;;;;5080036;28;20072;-79
2021/04/18 09:52:32;;;;;;;11.93;6.13;;;9.50;91.30;;;;;;5073160;28;20447;-80
2021/04/18 09:55:13;;;;;;;10.85;5.95;;;9.50;91.00;;;;;;5066083;28;20513;-79
2021/04/18 09:57:49;;;;;;;10.07;6.20;;;9.50;90.80;;;;;;5079421;28;20068;-76
2021/04/18 10:00:23;;;;;;;10.02;5.72;;;9.60;91.10;;;;;;5054140;28;20120;-78
2021/04/18 10:03:08;;;;;;;11.03;6.13;;;9.60;91.20;;;;;;5076291;28;20183;-78
2021/04/18 10:05:38;;;;;;;11.10;6.20;;;9.70;91.00;;;;;;5071927;28;20071;-79
2021/04/18 10:08:26;;;;;;;8.93;5.60;;;9.80;90.50;;;;;;5074538;28;20052;-79
2021/04/18 10:10:56;;;;;;;10.82;5.80;;;9.80;90.70;;;;;;5079273;28;20391;-80
2021/04/18 10:13:42;;;;;;;10.30;5.80;;;9.80;90.50;;;;;;5092933;28;20032;-80
2021/04/18 10:16:10;;;;;;;12.00;6.15;;;9.90;90.80;;;;;;5093232;28;20573;-79
2021/04/18 10:18:40;;;;;;;11.32;6.40;;;10.00;90.30;;;;;;5089323;28;20056;-78
2021/04/18 10:21:19;;;;;;;12.38;5.97;;;10.00;90.00;;;;;;5072430;28;20119;-79
2021/04/18 10:23:49;;;;;;;11.25;6.55;;;10.00;89.60;;;;;;5072755;28;20126;-77
2021/04/18 10:26:18;;;;;;;9.13;5.95;;;10.10;90.00;;;;;;5057960;28;20055;-84
2021/04/18 10:28:45;;;;;;;10.27;6.00;;;10.00;89.60;;;;;;5076000;28;20387;-77
2021/04/18 10:31:12;;;;;;;10.27;6.30;;;9.90;90.10;;;;;;5078273;28;20071;-78
2021/04/18 10:33:39;;;;;;;10.60;5.82;;;9.90;90.60;;;;;;5080505;28;20135;-78
2021/04/18 10:36:07;;;;;;;9.27;6.30;;;10.00;90.10;;;;;;5058771;28;20059;-77
2021/04/18 10:38:34;;;;;;;11.68;6.70;;;10.00;90.00;;;;;;5061352;28;20137;-78
2021/04/18 10:41:02;;;;;;;9.35;6.15;;;10.10;88.30;;;;;;5042677;28;20127;-78
2021/04/18 10:43:29;;;;;;;11.65;6.72;;;10.10;88.90;;;;;;5066761;28;20128;-78
2021/04/18 10:45:56;;;;;;;11.57;6.43;;;10.10;88.50;;;;;;5087915;28;20090;-79
2021/04/18 10:48:23;;;;;;;12.02;6.90;;;10.10;88.10;;;;;;5081259;28;20075;-77
2021/04/18 10:50:49;;;;;;;10.25;5.68;;;10.10;87.40;;;;;;5089333;28;20095;-78
2021/04/18 10:53:16;;;;;;;10.85;6.03;;;10.10;88.50;;;;;;5076595;28;20076;-77
2021/04/18 10:55:43;;;;;;;10.50;5.93;;;10.10;88.90;;;;;;5092640;28;20086;-77
2021/04/18 10:58:13;;;;;;;13.10;6.45;;;10.20;89.40;;;;;;5083620;28;20040;-78
2021/04/18 11:00:40;;;;;;;9.45;5.75;;;10.20;89.60;;;;;;5086453;28;20072;-79
2021/04/18 11:03:07;;;;;;;11.18;6.60;;;10.20;90.10;;;;;;5085808;28;20079;-76
2021/04/18 11:05:34;;;;;;;10.90;6.95;;;10.30;89.40;;;;;;5087551;28;20080;-77
2021/04/18 11:08:00;;;;;;;12.18;7.05;;;10.50;88.10;;;;;;5076936;28;20145;-81
2021/04/18 11:10:27;;;;;;;10.93;6.47;;;10.50;87.90;;;;;;5072776;28;20139;-81
2021/04/18 11:12:54;;;;;;;10.43;6.60;;;10.60;87.00;;;;;;5073340;28;20128;-81
2021/04/18 11:15:23;;;;;;;9.80;6.07;;;10.80;86.30;;;;;;5078082;28;20469;-78
2021/04/18 11:17:51;;;;;;;10.52;6.18;;;10.80;86.20;;;;;;5094191;28;20048;-83
2021/04/18 11:20:18;;;;;;;9.65;6.28;;;10.70;85.90;;;;;;5093477;28;20087;-82
2021/04/18 11:22:45;;;;;;;9.45;6.25;;;10.80;86.30;;;;;;5088660;28;20040;-79
2021/04/18 11:25:14;;;;;;;10.57;6.25;;;10.80;85.70;;;;;;5086804;28;20494;-80
2021/04/18 11:27:41;;;;;;;11.13;6.93;;;10.90;84.10;;;;;;5093368;28;20071;-78
2021/04/18 11:30:11;;;;;;;9.48;6.03;;;10.90;83.70;;;;;;5083060;28;20505;-79
2021/04/18 11:32:39;;;;;;;12.00;6.38;;;10.80;84.00;;;;;;5077385;28;20135;-80
2021/04/18 11:35:10;;;;;;;10.32;6.15;;;10.80;84.50;;;;;;5082157;28;20082;-79
2021/04/18 11:37:37;;;;;;;9.32;5.88;;;10.90;83.90;;;;;;5085677;28;20105;-79
2021/04/18 11:40:08;;;;;;;12.77;7.13;;;10.90;84.40;;;;;;5073126;28;20041;-80
2021/04/18 11:42:35;;;;;;;9.57;6.65;;;11.00;82.00;;;;;;5082786;28;20059;-80
2021/04/18 11:45:02;;;;;;;13.00;6.75;;;10.90;83.00;;;;;;5078548;28;20140;-79
2021/04/18 11:47:29;;;;;;;9.20;6.55;;;10.80;82.80;;;;;;5084125;28;20067;-78
2021/04/18 11:49:57;;;;;;;11.55;6.90;;;10.80;83.30;;;;;;5084527;28;20497;-78
2021/04/18 11:52:23;;;;;;;12.80;6.75;;;10.80;84.30;;;;;;5076859;28;20048;-79
2021/04/18 11:54:50;;;;;;;11.00;6.35;;;10.70;84.70;;;;;;5086286;28;20175;-78
2021/04/18 11:57:17;;;;;;;10.63;6.15;;;10.70;84.10;;;;;;5084252;28;20072;-79
2021/04/18 11:59:43;;;;;;;11.00;6.43;;;10.70;84.10;;;;;;5067737;28;20106;-80
2021/04/18 12:02:11;;;;;;;11.15;5.82;;;10.80;84.70;;;;;;5078350;28;20097;-80
2021/04/18 12:04:38;;;;;;;10.98;5.93;;;10.80;84.50;;;;;;5089926;28;20055;-78
2021/04/18 12:07:06;;;;;;;9.43;5.93;;;10.80;84.90;;;;;;5081016;28;20131;-78
2021/04/18 12:09:33;;;;;;;11.05;6.22;;;10.90;84.60;;;;;;5092009;28;20075;-78
2021/04/18 12:12:00;;;;;;;11.07;5.78;;;11.00;84.00;;;;;;5078285;28;20051;-79
2021/04/18 12:14:27;;;;;;;10.45;5.97;;;11.10;83.30;;;;;;5078253;28;20430;-78
2021/04/18 12:16:54;;;;;;;9.52;6.22;;;11.20;83.10;;;;;;5090076;28;20142;-77
2021/04/18 12:19:20;;;;;;;8.82;5.82;;;11.20;82.30;;;;;;5086525;28;20123;-78
2021/04/18 12:21:47;;;;;;;11.27;6.30;;;11.20;82.50;;;;;;5078897;28;20105;-76
2021/04/18 12:24:14;;;;;;;12.48;7.78;;;11.30;81.90;;;;;;5092073;28;20119;-79
2021/04/18 12:26:41;;;;;;;9.23;5.95;;;11.40;79.70;;;;;;5079946;28;20068;-78
2021/04/18 12:29:08;;;;;;;11.50;6.55;;;11.30;81.10;;;;;;5083854;28;20048;-78
2021/04/18 12:31:37;;;;;;;11.38;5.82;;;11.30;80.50;;;;;;5096160;28;20083;-77
2021/04/18 12:34:03;;;;;;;8.73;5.35;;;11.30;81.30;;;;;;5082497;28;20051;-77
2021/04/18 12:36:30;;;;;;;11.73;6.88;;;11.30;82.70;;;;;;5083426;28;20094;-78
2021/04/18 12:38:57;;;;;;;13.88;7.05;;;11.50;81.20;;;;;;5097355;28;20086;-78
2021/04/18 12:41:24;;;;;;;12.75;7.45;;;11.60;80.50;;;;;;5079904;28;20133;-77
2021/04/18 12:43:51;;;;;;;10.23;6.43;;;11.70;79.00;;;;;;5089818;28;20072;-79
2021/04/18 12:46:18;;;;;;;7.90;5.50;;;11.80;79.30;;;;;;5084164;28;20506;-77
2021/04/18 12:48:46;;;;;;;9.45;5.20;;;11.90;79.90;;;;;;5095160;28;20512;-78
2021/04/18 12:51:13;;;;;;;10.02;6.07;;;12.00;80.30;;;;;;5096491;28;20051;-77
2021/04/18 12:53:40;;;;;;;9.65;5.78;;;12.30;78.90;;;;;;5099239;28;20071;-79
2021/04/18 12:56:08;;;;;;;9.25;5.75;;;12.50;78.30;;;;;;5090358;28;20053;-77
2021/04/18 12:58:36;;;;;;;8.52;5.50;;;12.70;78.10;;;;;;5088332;28;20419;-77
2021/04/18 13:01:03;;;;;;;10.35;5.78;;;12.80;77.00;;;;;;5094646;28;20048;-78